Westport, Connecticut
Current Conditions -  °F | °C
As of 3:52 PM on Friday 21 Nov 2014 (Local Time) from KBDR Reporting Station
Clear Clear  
Wind Chill: -3°   Ceiling: Unl
Heat Index:   Visibility: 10mi
Dew Point: -13°   Wind: 15mph
Humidity: 31%   Direction: 310°NW
Pressure: 30.33"   Gusts: NA
Location:  41.14°N, 73.36°W
Report Text: KBDR 212052Z 31013KT 10SM CLR 02/M13 A3033 RMK AO2 SLP271 T00221133 53031
Loading
Personal Weather Stations






























Interactive Weather Map New forecast layout! Learn more

10-Day Weather Forecast

Advertisements
Track Severe Weather on mobile